• Join FlightAware (Why Join?)
  • Login
  • US Flag 
11:14PM EDT


 

Airport Tracker/Info


-or-


 

Live Flight TrackerFlight Track Log ✈ RPA3275 ✈ 21-May-2013 ✈ KALB - KPHL

Flight Track Log - Related Links

Times and Time Zones

All times are in EDT time to prevent confusion due to time zone crossing. See the RPA3275 flight status page for this flight to view local times or setup timezone preferences in your user account.

Time Position Orientation Groundspeed Altitude Reporting Facility
EDT Latitude Longitude Course Direction KTS MPH feet Rate Location/Type
07:09AM 42.7164 -73.8869 223° Southwest 210 242 3,600  Level Boston Center
07:10AM 42.7333 -74.1427 270° West  Level FlightAware Approximate
07:11AM 42.7333 -74.2570 270° West  Level FlightAware Approximate
07:11AM 42.7269 -74.0228 276° West 256 295 7,100  Level Boston Center
07:12AM 42.6992 -74.3530 220° Southwest  Level FlightAware Approximate
07:12AM 42.7339 -74.1275 275° West 263 303 9,800  Level Boston Center
07:13AM 42.6259 -74.4355 220° Southwest  Level FlightAware Approximate
07:13AM 42.7406 -74.2325 275° West 273 314 11,800  Level Boston Center
07:14AM 42.5541 -74.5200 223° Southwest  Level FlightAware Approximate
07:14AM 42.7511 -74.3458 277° West 291 335 14,000  Level Boston Center
07:15AM 42.7619 -74.4564 278° West 297 342 16,000 960 Climbing Boston Center
07:16AM 42.7722 -74.5728 277° West 308 354 16,000  Level Boston Center
07:17AM 42.7803 -74.6975 275° West 316 364 16,000  Level Boston Center
07:18AM 42.7903 -74.8167 277° West 322 371 16,000  Level Boston Center
07:19AM 42.7803 -74.8983 261° West 317 365 16,000  Level Boston Center
07:20AM 42.6669 -74.9306 192° South 259 298 16,000  Level Boston Center
07:21AM 42.5711 -74.9353 182° South 313 360 16,000  Level Boston Center
07:22AM 42.4750 -74.9397 182° South 325 374 16,000  Level Boston Center
07:23AM 42.3789 -74.9472 183° South 344 396 16,000  Level Boston Center
07:24AM 42.2203 -74.9544 182° South 364 419 16,000  Level New York Center
07:25AM 42.1225 -75.0069 202° Southwest 345 397 16,000  Level New York Center
07:26AM 42.0431 -75.0744 212° Southwest 345 397 16,000  Level New York Center
07:27AM 41.9639 -75.1389 211° Southwest 345 397 16,000  Level New York Center
07:28AM 41.8800 -75.2058 211° Southwest 355 409 16,000 -540 Level New York Center
07:29AM 41.8050 -75.2647 210° Southwest 355 409 15,000 -1,020 Descending New York Center
07:30AM 41.7233 -75.3314 211° Southwest 350 403 14,000 -1,080 Descending New York Center
07:31AM 41.6353 -75.4031 211° Southwest 350 403 12,900 -1,080 Descending New York Center
07:32AM 41.5536 -75.4669 210° Southwest 350 403 11,900 -540 Descending New York Center
07:33AM 41.4739 -75.5306 211° Southwest 344 396 11,900  Level New York Center
07:34AM 41.4031 -75.5864 211° Southwest 344 396 11,900  Level New York Center
07:35AM 41.3125 -75.6572 210° Southwest 344 396 11,900 -300 Level New York Center
07:36AM 41.2258 -75.6894 196° South 344 396 11,300 -780 Descending New York Center
07:37AM 41.1322 -75.6883 179° South 332 382 10,400 -720 Descending New York Center
07:38AM 41.0425 -75.6872 179° South 332 382 9,900 -240 Descending New York Center
07:39AM 40.9536 -75.6725 173° South 327 376 10,000  Climbing New York Center
07:40AM 40.8761 -75.6339 159° South 327 376 10,000  Level New York Center
07:41AM 40.7903 -75.5922 160° South 335 386 10,000  Level New York Center
07:42AM 40.6942 -75.5472 160° South 335 386 10,000  Level New York Center
07:43AM 40.6083 -75.5056 160° South 335 386 10,000  Level New York Center
07:44AM 40.5222 -75.4669 161° South 335 386 10,000  Level New York Center
07:45AM 40.4447 -75.4289 160° South 319 367 10,000 -720 Level New York Center
07:46AM 40.3692 -75.3858 157° South 299 344 8,600 -1,500 Descending New York Center
07:47AM 40.2958 -75.3428 156° South 294 338 7,000 -840 Descending New York Center
07:48AM 40.2306 -75.3058 157° South 289 333 7,000  Level New York Center
07:49AM 40.1619 -75.2469 147° Southeast 290 334 7,000 -480 Level New York Center
07:50AM 40.0961 -75.1694 138° Southeast 290 334 6,100 -540 Descending New York Center
07:51AM 40.0667 -75.1000 119° Southeast 254 292 6,000 -120 Descending Philadelphia TRACON
07:52AM 40.0333 -75.0167 118° Southeast 204 235 5,900 -720 Descending Philadelphia TRACON
07:53AM 39.9833 -75.0000 166° South 195 224 4,700 -1,500 Descending Philadelphia TRACON
07:54AM 39.9333 -74.9833 166° South 185 213 3,000 -900 Descending Philadelphia TRACON
07:55AM 39.9167 -75.0333 247° West 176 203 3,000  Level Philadelphia TRACON